sensor_id;sensor_type;location;lat;lon;timestamp;temperature;humidity
10121;DHT22;5100;45.176;5.714;2023-02-15T00:00:35;10.20;59.70
10121;DHT22;5100;45.176;5.714;2023-02-15T00:03:02;10.20;59.70
10121;DHT22;5100;45.176;5.714;2023-02-15T00:05:30;10.10;59.70
10121;DHT22;5100;45.176;5.714;2023-02-15T00:07:56;10.10;59.80
10121;DHT22;5100;45.176;5.714;2023-02-15T00:10:22;10.10;59.80
10121;DHT22;5100;45.176;5.714;2023-02-15T00:12:49;10.10;59.70
10121;DHT22;5100;45.176;5.714;2023-02-15T00:15:15;10.10;59.70
10121;DHT22;5100;45.176;5.714;2023-02-15T00:17:41;10.10;59.80
10121;DHT22;5100;45.176;5.714;2023-02-15T00:20:08;10.10;59.80
10121;DHT22;5100;45.176;5.714;2023-02-15T00:22:34;10.10;59.80
10121;DHT22;5100;45.176;5.714;2023-02-15T00:25:00;10.10;59.90
10121;DHT22;5100;45.176;5.714;2023-02-15T00:27:26;10.10;59.90
10121;DHT22;5100;45.176;5.714;2023-02-15T00:29:52;10.00;59.90
10121;DHT22;5100;45.176;5.714;2023-02-15T00:32:19;10.10;59.90
10121;DHT22;5100;45.176;5.714;2023-02-15T00:34:46;10.00;59.90
10121;DHT22;5100;45.176;5.714;2023-02-15T00:37:12;10.00;60.00
10121;DHT22;5100;45.176;5.714;2023-02-15T00:39:38;10.00;59.90
10121;DHT22;5100;45.176;5.714;2023-02-15T00:42:05;10.00;59.80
10121;DHT22;5100;45.176;5.714;2023-02-15T00:44:31;10.00;59.90
10121;DHT22;5100;45.176;5.714;2023-02-15T00:46:57;10.00;60.00
10121;DHT22;5100;45.176;5.714;2023-02-15T00:49:23;10.00;59.90
10121;DHT22;5100;45.176;5.714;2023-02-15T00:51:49;10.00;59.80
10121;DHT22;5100;45.176;5.714;2023-02-15T00:54:15;10.00;59.90
10121;DHT22;5100;45.176;5.714;2023-02-15T00:56:41;9.90;59.90
10121;DHT22;5100;45.176;5.714;2023-02-15T00:59:08;9.90;59.90
10121;DHT22;5100;45.176;5.714;2023-02-15T01:01:35;9.90;59.90
10121;DHT22;5100;45.176;5.714;2023-02-15T01:04:01;9.90;59.90
10121;DHT22;5100;45.176;5.714;2023-02-15T01:06:29;9.90;59.90
10121;DHT22;5100;45.176;5.714;2023-02-15T01:08:55;9.90;60.00
10121;DHT22;5100;45.176;5.714;2023-02-15T01:11:22;9.90;60.00
10121;DHT22;5100;45.176;5.714;2023-02-15T01:13:52;9.80;60.00
10121;DHT22;5100;45.176;5.714;2023-02-15T01:16:19;9.80;60.00
10121;DHT22;5100;45.176;5.714;2023-02-15T01:18:45;9.80;60.00
10121;DHT22;5100;45.176;5.714;2023-02-15T01:21:17;9.80;60.10
10121;DHT22;5100;45.176;5.714;2023-02-15T01:23:45;9.80;60.10
10121;DHT22;5100;45.176;5.714;2023-02-15T01:26:12;9.80;60.20
10121;DHT22;5100;45.176;5.714;2023-02-15T01:28:38;9.70;60.10
10121;DHT22;5100;45.176;5.714;2023-02-15T01:31:07;9.70;60.30
10121;DHT22;5100;45.176;5.714;2023-02-15T01:33:33;9.70;60.50
10121;DHT22;5100;45.176;5.714;2023-02-15T01:35:59;9.70;60.70
10121;DHT22;5100;45.176;5.714;2023-02-15T01:38:26;9.70;60.80
10121;DHT22;5100;45.176;5.714;2023-02-15T01:40:52;9.70;60.80
10121;DHT22;5100;45.176;5.714;2023-02-15T01:43:19;9.70;60.80
10121;DHT22;5100;45.176;5.714;2023-02-15T01:45:48;9.70;60.80
10121;DHT22;5100;45.176;5.714;2023-02-15T01:48:22;9.70;60.90
10121;DHT22;5100;45.176;5.714;2023-02-15T01:50:57;9.70;60.80
10121;DHT22;5100;45.176;5.714;2023-02-15T01:53:47;9.70;60.80
10121;DHT22;5100;45.176;5.714;2023-02-15T01:56:26;9.70;60.80
10121;DHT22;5100;45.176;5.714;2023-02-15T01:58:55;9.70;60.80
10121;DHT22;5100;45.176;5.714;2023-02-15T02:01:24;9.60;60.80
10121;DHT22;5100;45.176;5.714;2023-02-15T02:06:21;9.60;60.90
10121;DHT22;5100;45.176;5.714;2023-02-15T02:08:47;9.60;61.00
10121;DHT22;5100;45.176;5.714;2023-02-15T02:11:14;9.60;60.90
10121;DHT22;5100;45.176;5.714;2023-02-15T02:13:45;9.60;60.90
10121;DHT22;5100;45.176;5.714;2023-02-15T02:22:11;9.60;60.80
10121;DHT22;5100;45.176;5.714;2023-02-15T02:33:20;9.50;60.70
10121;DHT22;5100;45.176;5.714;2023-02-15T02:36:15;9.50;60.70
10121;DHT22;5100;45.176;5.714;2023-02-15T02:39:12;9.50;60.70
10121;DHT22;5100;45.176;5.714;2023-02-15T02:44:55;9.50;60.50
10121;DHT22;5100;45.176;5.714;2023-02-15T02:47:27;9.40;60.60
10121;DHT22;5100;45.176;5.714;2023-02-15T02:50:00;9.40;60.40
10121;DHT22;5100;45.176;5.714;2023-02-15T02:52:45;9.40;60.40
10121;DHT22;5100;45.176;5.714;2023-02-15T02:55:33;9.40;60.30
10121;DHT22;5100;45.176;5.714;2023-02-15T02:58:14;9.40;60.40
10121;DHT22;5100;45.176;5.714;2023-02-15T03:03:27;9.40;60.60
10121;DHT22;5100;45.176;5.714;2023-02-15T03:05:58;9.40;60.60
10121;DHT22;5100;45.176;5.714;2023-02-15T03:08:36;9.40;60.60
10121;DHT22;5100;45.176;5.714;2023-02-15T03:11:03;9.30;60.60
10121;DHT22;5100;45.176;5.714;2023-02-15T03:13:31;9.30;60.50
10121;DHT22;5100;45.176;5.714;2023-02-15T03:15:58;9.30;60.40
10121;DHT22;5100;45.176;5.714;2023-02-15T03:18:48;9.30;60.40
10121;DHT22;5100;45.176;5.714;2023-02-15T03:21:22;9.30;60.30
10121;DHT22;5100;45.176;5.714;2023-02-15T03:23:55;9.30;60.20
10121;DHT22;5100;45.176;5.714;2023-02-15T03:26:24;9.30;60.20
10121;DHT22;5100;45.176;5.714;2023-02-15T03:28:54;9.30;60.10
10121;DHT22;5100;45.176;5.714;2023-02-15T03:31:24;9.30;60.20
10121;DHT22;5100;45.176;5.714;2023-02-15T03:33:58;9.20;60.40
10121;DHT22;5100;45.176;5.714;2023-02-15T03:39:34;9.20;60.40
10121;DHT22;5100;45.176;5.714;2023-02-15T03:42:30;9.20;60.30
10121;DHT22;5100;45.176;5.714;2023-02-15T03:45:04;9.20;60.20
10121;DHT22;5100;45.176;5.714;2023-02-15T03:47:34;9.20;60.30
10121;DHT22;5100;45.176;5.714;2023-02-15T03:50:08;9.10;60.40
10121;DHT22;5100;45.176;5.714;2023-02-15T03:52:57;9.10;60.30
10121;DHT22;5100;45.176;5.714;2023-02-15T03:55:24;9.10;60.20
10121;DHT22;5100;45.176;5.714;2023-02-15T03:57:51;9.10;60.20
10121;DHT22;5100;45.176;5.714;2023-02-15T04:00:38;9.10;60.20
10121;DHT22;5100;45.176;5.714;2023-02-15T04:05:57;9.10;60.30
10121;DHT22;5100;45.176;5.714;2023-02-15T04:08:23;9.00;60.30
10121;DHT22;5100;45.176;5.714;2023-02-15T04:11:09;9.00;60.30
10121;DHT22;5100;45.176;5.714;2023-02-15T04:13:35;9.00;60.30
10121;DHT22;5100;45.176;5.714;2023-02-15T04:16:01;9.00;60.30
10121;DHT22;5100;45.176;5.714;2023-02-15T04:18:34;9.00;60.30
10121;DHT22;5100;45.176;5.714;2023-02-15T04:21:20;8.90;60.30
10121;DHT22;5100;45.176;5.714;2023-02-15T04:24:06;8.90;60.30
10121;DHT22;5100;45.176;5.714;2023-02-15T04:26:51;8.90;60.40
10121;DHT22;5100;45.176;5.714;2023-02-15T04:29:23;8.90;60.30
10121;DHT22;5100;45.176;5.714;2023-02-15T04:31:50;8.90;60.30
10121;DHT22;5100;45.176;5.714;2023-02-15T04:34:17;8.90;60.50
10121;DHT22;5100;45.176;5.714;2023-02-15T04:36:43;8.90;60.50
10121;DHT22;5100;45.176;5.714;2023-02-15T04:39:12;8.90;60.40
10121;DHT22;5100;45.176;5.714;2023-02-15T04:41:39;8.80;60.50
10121;DHT22;5100;45.176;5.714;2023-02-15T04:44:05;8.80;60.60
10121;DHT22;5100;45.176;5.714;2023-02-15T04:46:31;8.80;60.60
10121;DHT22;5100;45.176;5.714;2023-02-15T04:48:57;8.80;60.50
10121;DHT22;5100;45.176;5.714;2023-02-15T04:51:24;8.80;60.40
10121;DHT22;5100;45.176;5.714;2023-02-15T04:53:50;8.80;60.40
10121;DHT22;5100;45.176;5.714;2023-02-15T04:56:19;8.80;60.30
10121;DHT22;5100;45.176;5.714;2023-02-15T04:58:45;8.80;60.30
10121;DHT22;5100;45.176;5.714;2023-02-15T05:01:11;8.80;60.40
10121;DHT22;5100;45.176;5.714;2023-02-15T05:03:37;8.80;60.40
10121;DHT22;5100;45.176;5.714;2023-02-15T05:06:04;8.80;60.40
10121;DHT22;5100;45.176;5.714;2023-02-15T05:08:30;8.80;60.50
10121;DHT22;5100;45.176;5.714;2023-02-15T05:10:57;8.80;60.60
10121;DHT22;5100;45.176;5.714;2023-02-15T05:13:23;8.80;60.70
10121;DHT22;5100;45.176;5.714;2023-02-15T05:15:51;8.80;60.90
10121;DHT22;5100;45.176;5.714;2023-02-15T05:18:19;8.80;61.00
10121;DHT22;5100;45.176;5.714;2023-02-15T05:20:46;8.80;61.50
10121;DHT22;5100;45.176;5.714;2023-02-15T05:23:12;8.80;61.70
10121;DHT22;5100;45.176;5.714;2023-02-15T05:25:38;8.80;61.90
10121;DHT22;5100;45.176;5.714;2023-02-15T05:28:26;8.80;61.90
10121;DHT22;5100;45.176;5.714;2023-02-15T05:31:13;8.80;61.90
10121;DHT22;5100;45.176;5.714;2023-02-15T05:33:41;8.80;61.90
10121;DHT22;5100;45.176;5.714;2023-02-15T05:36:07;8.80;61.90
10121;DHT22;5100;45.176;5.714;2023-02-15T05:38:34;8.70;62.00
10121;DHT22;5100;45.176;5.714;2023-02-15T05:41:00;8.70;62.00
10121;DHT22;5100;45.176;5.714;2023-02-15T05:43:26;8.70;62.00
10121;DHT22;5100;45.176;5.714;2023-02-15T05:45:53;8.70;61.90
10121;DHT22;5100;45.176;5.714;2023-02-15T05:48:22;8.70;61.70
10121;DHT22;5100;45.176;5.714;2023-02-15T05:51:06;8.70;61.70
10121;DHT22;5100;45.176;5.714;2023-02-15T05:53:36;8.70;61.70
10121;DHT22;5100;45.176;5.714;2023-02-15T05:56:03;8.70;61.70
10121;DHT22;5100;45.176;5.714;2023-02-15T05:58:38;8.70;61.70
10121;DHT22;5100;45.176;5.714;2023-02-15T06:01:11;8.70;61.30
10121;DHT22;5100;45.176;5.714;2023-02-15T06:03:38;8.70;61.30
10121;DHT22;5100;45.176;5.714;2023-02-15T06:06:04;8.60;61.20
10121;DHT22;5100;45.176;5.714;2023-02-15T06:08:33;8.60;61.00
10121;DHT22;5100;45.176;5.714;2023-02-15T06:11:00;8.60;61.00
10121;DHT22;5100;45.176;5.714;2023-02-15T06:13:26;8.60;60.90
10121;DHT22;5100;45.176;5.714;2023-02-15T06:15:52;8.60;61.10
10121;DHT22;5100;45.176;5.714;2023-02-15T06:18:19;8.60;61.10
10121;DHT22;5100;45.176;5.714;2023-02-15T06:20:48;8.50;61.20
10121;DHT22;5100;45.176;5.714;2023-02-15T06:23:14;8.50;61.20
10121;DHT22;5100;45.176;5.714;2023-02-15T06:25:41;8.50;61.40
10121;DHT22;5100;45.176;5.714;2023-02-15T06:28:07;8.50;61.40
10121;DHT22;5100;45.176;5.714;2023-02-15T06:30:33;8.50;61.70
10121;DHT22;5100;45.176;5.714;2023-02-15T06:33:00;8.50;62.00
10121;DHT22;5100;45.176;5.714;2023-02-15T06:35:26;8.50;62.20
10121;DHT22;5100;45.176;5.714;2023-02-15T06:37:52;8.50;62.20
10121;DHT22;5100;45.176;5.714;2023-02-15T06:40:18;8.50;62.20
10121;DHT22;5100;45.176;5.714;2023-02-15T06:42:44;8.50;62.30
10121;DHT22;5100;45.176;5.714;2023-02-15T06:45:11;8.50;62.30
10121;DHT22;5100;45.176;5.714;2023-02-15T06:47:37;8.50;62.40
10121;DHT22;5100;45.176;5.714;2023-02-15T06:50:04;8.50;62.40
10121;DHT22;5100;45.176;5.714;2023-02-15T06:52:30;8.50;62.40
10121;DHT22;5100;45.176;5.714;2023-02-15T06:54:57;8.50;62.40
10121;DHT22;5100;45.176;5.714;2023-02-15T06:57:23;8.50;62.40
10121;DHT22;5100;45.176;5.714;2023-02-15T06:59:49;8.50;62.30
10121;DHT22;5100;45.176;5.714;2023-02-15T07:02:15;8.50;62.30
10121;DHT22;5100;45.176;5.714;2023-02-15T07:04:41;8.50;62.40
10121;DHT22;5100;45.176;5.714;2023-02-15T07:07:11;8.50;62.20
10121;DHT22;5100;45.176;5.714;2023-02-15T07:09:38;8.60;62.20
10121;DHT22;5100;45.176;5.714;2023-02-15T07:12:05;8.50;62.20
10121;DHT22;5100;45.176;5.714;2023-02-15T07:14:50;8.50;62.10
10121;DHT22;5100;45.176;5.714;2023-02-15T07:17:16;8.50;62.10
10121;DHT22;5100;45.176;5.714;2023-02-15T07:19:43;8.50;62.20
10121;DHT22;5100;45.176;5.714;2023-02-15T07:22:09;8.50;62.30
10121;DHT22;5100;45.176;5.714;2023-02-15T07:24:35;8.60;62.50
10121;DHT22;5100;45.176;5.714;2023-02-15T07:27:01;8.60;62.50
10121;DHT22;5100;45.176;5.714;2023-02-15T07:29:28;8.60;62.60
10121;DHT22;5100;45.176;5.714;2023-02-15T07:31:55;8.60;62.60
10121;DHT22;5100;45.176;5.714;2023-02-15T07:34:20;8.70;62.60
10121;DHT22;5100;45.176;5.714;2023-02-15T07:36:47;8.70;62.50
10121;DHT22;5100;45.176;5.714;2023-02-15T07:39:13;8.70;62.40
10121;DHT22;5100;45.176;5.714;2023-02-15T07:41:39;8.70;62.30
10121;DHT22;5100;45.176;5.714;2023-02-15T07:44:14;8.80;62.10
10121;DHT22;5100;45.176;5.714;2023-02-15T07:46:40;8.80;62.10
10121;DHT22;5100;45.176;5.714;2023-02-15T07:49:06;8.80;62.10
10121;DHT22;5100;45.176;5.714;2023-02-15T07:51:33;8.80;62.10
10121;DHT22;5100;45.176;5.714;2023-02-15T07:53:59;8.80;62.10
10121;DHT22;5100;45.176;5.714;2023-02-15T07:56:25;8.80;62.20
10121;DHT22;5100;45.176;5.714;2023-02-15T07:58:51;8.80;62.20
10121;DHT22;5100;45.176;5.714;2023-02-15T08:01:19;8.80;62.20
10121;DHT22;5100;45.176;5.714;2023-02-15T08:03:47;8.80;62.10
10121;DHT22;5100;45.176;5.714;2023-02-15T08:06:13;8.90;62.10
10121;DHT22;5100;45.176;5.714;2023-02-15T08:08:39;8.90;62.10
10121;DHT22;5100;45.176;5.714;2023-02-15T08:13:56;9.00;62.10
10121;DHT22;5100;45.176;5.714;2023-02-15T08:19:22;9.60;60.90
10121;DHT22;5100;45.176;5.714;2023-02-15T08:24:19;9.80;60.30
10121;DHT22;5100;45.176;5.714;2023-02-15T08:26:46;9.80;60.20
10121;DHT22;5100;45.176;5.714;2023-02-15T08:29:19;9.70;60.20
10121;DHT22;5100;45.176;5.714;2023-02-15T08:31:47;9.70;60.30
10121;DHT22;5100;45.176;5.714;2023-02-15T08:34:16;9.70;60.40
10121;DHT22;5100;45.176;5.714;2023-02-15T08:36:42;9.60;60.40
10121;DHT22;5100;45.176;5.714;2023-02-15T08:39:11;9.60;60.40
10121;DHT22;5100;45.176;5.714;2023-02-15T08:41:38;9.60;60.20
10121;DHT22;5100;45.176;5.714;2023-02-15T08:44:07;9.60;60.30
10121;DHT22;5100;45.176;5.714;2023-02-15T08:46:36;9.60;60.60
10121;DHT22;5100;45.176;5.714;2023-02-15T08:49:03;9.50;60.50
10121;DHT22;5100;45.176;5.714;2023-02-15T08:51:34;9.50;60.50
10121;DHT22;5100;45.176;5.714;2023-02-15T08:54:03;9.50;60.60
10121;DHT22;5100;45.176;5.714;2023-02-15T08:56:34;9.50;60.60
10121;DHT22;5100;45.176;5.714;2023-02-15T08:59:01;9.50;60.60
10121;DHT22;5100;45.176;5.714;2023-02-15T09:01:29;9.50;60.50
10121;DHT22;5100;45.176;5.714;2023-02-15T09:03:58;9.60;59.90
10121;DHT22;5100;45.176;5.714;2023-02-15T09:06:25;9.60;59.50
10121;DHT22;5100;45.176;5.714;2023-02-15T09:08:52;9.60;59.20
10121;DHT22;5100;45.176;5.714;2023-02-15T09:11:22;9.60;59.10
10121;DHT22;5100;45.176;5.714;2023-02-15T09:14:12;9.60;59.00
10121;DHT22;5100;45.176;5.714;2023-02-15T09:16:41;9.70;59.10
10121;DHT22;5100;45.176;5.714;2023-02-15T09:19:07;9.70;58.80
10121;DHT22;5100;45.176;5.714;2023-02-15T09:21:36;9.70;58.80
10121;DHT22;5100;45.176;5.714;2023-02-15T09:24:06;9.80;58.80
10121;DHT22;5100;45.176;5.714;2023-02-15T09:26:34;9.80;58.80
10121;DHT22;5100;45.176;5.714;2023-02-15T09:29:01;9.80;58.90
10121;DHT22;5100;45.176;5.714;2023-02-15T09:31:31;9.80;59.00
10121;DHT22;5100;45.176;5.714;2023-02-15T09:33:58;9.90;59.10
10121;DHT22;5100;45.176;5.714;2023-02-15T09:36:29;9.90;59.20
10121;DHT22;5100;45.176;5.714;2023-02-15T09:39:21;10.00;59.00
10121;DHT22;5100;45.176;5.714;2023-02-15T09:44:29;10.00;58.90
10121;DHT22;5100;45.176;5.714;2023-02-15T09:50:18;10.10;58.70
10121;DHT22;5100;45.176;5.714;2023-02-15T09:56:22;10.10;58.50
10121;DHT22;5100;45.176;5.714;2023-02-15T10:01:50;10.20;58.60
10121;DHT22;5100;45.176;5.714;2023-02-15T10:16:01;10.30;58.20
10121;DHT22;5100;45.176;5.714;2023-02-15T10:22:00;10.40;57.90
10121;DHT22;5100;45.176;5.714;2023-02-15T10:24:57;10.40;57.90
10121;DHT22;5100;45.176;5.714;2023-02-15T10:27:32;10.40;58.00
10121;DHT22;5100;45.176;5.714;2023-02-15T10:30:14;10.50;58.20
10121;DHT22;5100;45.176;5.714;2023-02-15T10:32:53;10.50;58.20
10121;DHT22;5100;45.176;5.714;2023-02-15T10:35:40;10.50;58.30
10121;DHT22;5100;45.176;5.714;2023-02-15T10:41:05;10.60;58.30
10121;DHT22;5100;45.176;5.714;2023-02-15T10:46:49;10.70;58.00
10121;DHT22;5100;45.176;5.714;2023-02-15T11:00:50;10.80;57.50
10121;DHT22;5100;45.176;5.714;2023-02-15T11:03:47;10.80;57.40
10121;DHT22;5100;45.176;5.714;2023-02-15T11:06:19;10.90;57.40
10121;DHT22;5100;45.176;5.714;2023-02-15T11:08:50;10.90;57.30
10121;DHT22;5100;45.176;5.714;2023-02-15T11:11:51;10.90;57.20
10121;DHT22;5100;45.176;5.714;2023-02-15T11:17:13;11.00;57.60
10121;DHT22;5100;45.176;5.714;2023-02-15T11:22:33;11.10;57.80
10121;DHT22;5100;45.176;5.714;2023-02-15T11:25:01;11.10;58.10
10121;DHT22;5100;45.176;5.714;2023-02-15T11:27:32;11.10;58.10
10121;DHT22;5100;45.176;5.714;2023-02-15T11:30:12;11.10;58.10
10121;DHT22;5100;45.176;5.714;2023-02-15T11:32:43;11.20;58.10
10121;DHT22;5100;45.176;5.714;2023-02-15T11:35:27;11.20;57.90
10121;DHT22;5100;45.176;5.714;2023-02-15T11:38:21;11.20;57.90
10121;DHT22;5100;45.176;5.714;2023-02-15T11:40:49;11.20;58.10
10121;DHT22;5100;45.176;5.714;2023-02-15T11:43:34;11.30;58.20
10121;DHT22;5100;45.176;5.714;2023-02-15T11:46:03;11.30;58.50
10121;DHT22;5100;45.176;5.714;2023-02-15T11:48:31;11.30;58.70
10121;DHT22;5100;45.176;5.714;2023-02-15T11:50:58;11.30;59.10
10121;DHT22;5100;45.176;5.714;2023-02-15T11:53:26;11.30;59.20
10121;DHT22;5100;45.176;5.714;2023-02-15T11:55:55;11.40;59.20
10121;DHT22;5100;45.176;5.714;2023-02-15T11:58:41;11.40;59.10
10121;DHT22;5100;45.176;5.714;2023-02-15T12:03:51;11.40;59.00
10121;DHT22;5100;45.176;5.714;2023-02-15T12:11:40;11.50;58.90
10121;DHT22;5100;45.176;5.714;2023-02-15T12:14:12;11.50;58.70
10121;DHT22;5100;45.176;5.714;2023-02-15T12:16:45;11.50;58.90
10121;DHT22;5100;45.176;5.714;2023-02-15T12:19:34;11.50;59.80
10121;DHT22;5100;45.176;5.714;2023-02-15T12:22:04;11.50;59.20
10121;DHT22;5100;45.176;5.714;2023-02-15T12:24:36;11.50;58.80
10121;DHT22;5100;45.176;5.714;2023-02-15T12:27:45;11.60;58.80
10121;DHT22;5100;45.176;5.714;2023-02-15T12:29:56;11.60;59.20
10121;DHT22;5100;45.176;5.714;2023-02-15T12:32:27;11.60;59.20
10121;DHT22;5100;45.176;5.714;2023-02-15T12:35:00;11.70;59.00
10121;DHT22;5100;45.176;5.714;2023-02-15T12:37:29;11.70;59.10
10121;DHT22;5100;45.176;5.714;2023-02-15T12:40:00;11.70;59.50
10121;DHT22;5100;45.176;5.714;2023-02-15T12:42:40;11.70;60.10
10121;DHT22;5100;45.176;5.714;2023-02-15T12:50:49;11.80;61.30
10121;DHT22;5100;45.176;5.714;2023-02-15T12:53:16;11.90;61.20
10121;DHT22;5100;45.176;5.714;2023-02-15T12:58:26;11.90;60.70
10121;DHT22;5100;45.176;5.714;2023-02-15T13:03:35;12.00;59.90
10121;DHT22;5100;45.176;5.714;2023-02-15T13:06:04;12.00;59.30
10121;DHT22;5100;45.176;5.714;2023-02-15T13:08:48;12.00;58.90
10121;DHT22;5100;45.176;5.714;2023-02-15T13:11:21;12.10;59.10
10121;DHT22;5100;45.176;5.714;2023-02-15T13:13:53;12.10;59.70
10121;DHT22;5100;45.176;5.714;2023-02-15T13:16:31;12.10;60.10
10121;DHT22;5100;45.176;5.714;2023-02-15T13:18:59;12.20;60.50
10121;DHT22;5100;45.176;5.714;2023-02-15T13:21:32;12.20;60.50
10121;DHT22;5100;45.176;5.714;2023-02-15T13:24:33;12.30;60.60
10121;DHT22;5100;45.176;5.714;2023-02-15T13:27:02;12.30;60.50
10121;DHT22;5100;45.176;5.714;2023-02-15T13:29:31;12.40;60.50
10121;DHT22;5100;45.176;5.714;2023-02-15T13:32:11;12.50;60.30
10121;DHT22;5100;45.176;5.714;2023-02-15T13:34:39;12.50;60.30
10121;DHT22;5100;45.176;5.714;2023-02-15T13:37:41;12.60;60.50
10121;DHT22;5100;45.176;5.714;2023-02-15T13:40:19;12.60;60.60
10121;DHT22;5100;45.176;5.714;2023-02-15T13:43:05;12.60;60.70
10121;DHT22;5100;45.176;5.714;2023-02-15T13:46:14;12.70;60.70
10121;DHT22;5100;45.176;5.714;2023-02-15T13:53:55;12.70;60.80
10121;DHT22;5100;45.176;5.714;2023-02-15T14:02:34;12.80;60.80
10121;DHT22;5100;45.176;5.714;2023-02-15T14:11:01;12.90;60.40
10121;DHT22;5100;45.176;5.714;2023-02-15T14:19:45;13.00;59.60
10121;DHT22;5100;45.176;5.714;2023-02-15T14:22:31;13.00;59.00
10121;DHT22;5100;45.176;5.714;2023-02-15T14:25:17;13.10;58.50
10121;DHT22;5100;45.176;5.714;2023-02-15T14:30:56;13.10;58.20
10121;DHT22;5100;45.176;5.714;2023-02-15T14:33:43;13.20;58.00
10121;DHT22;5100;45.176;5.714;2023-02-15T14:36:16;13.20;57.90
10121;DHT22;5100;45.176;5.714;2023-02-15T14:42:06;13.30;57.70
10121;DHT22;5100;45.176;5.714;2023-02-15T14:49:45;13.40;57.30
10121;DHT22;5100;45.176;5.714;2023-02-15T14:52:11;13.40;57.00
10121;DHT22;5100;45.176;5.714;2023-02-15T15:00:00;13.50;56.80
10121;DHT22;5100;45.176;5.714;2023-02-15T15:02:43;13.60;56.40
10121;DHT22;5100;45.176;5.714;2023-02-15T15:07:54;13.60;56.20
10121;DHT22;5100;45.176;5.714;2023-02-15T15:12:58;13.70;56.40
10121;DHT22;5100;45.176;5.714;2023-02-15T15:15:45;13.70;56.50
10121;DHT22;5100;45.176;5.714;2023-02-15T15:18:45;13.80;56.40
10121;DHT22;5100;45.176;5.714;2023-02-15T15:27:44;13.80;56.20
10121;DHT22;5100;45.176;5.714;2023-02-15T15:44:05;13.90;56.20
10121;DHT22;5100;45.176;5.714;2023-02-15T15:46:42;13.90;56.20
10121;DHT22;5100;45.176;5.714;2023-02-15T15:49:17;13.90;56.50
10121;DHT22;5100;45.176;5.714;2023-02-15T15:51:45;13.90;56.40
10121;DHT22;5100;45.176;5.714;2023-02-15T15:54:23;14.00;56.40
10121;DHT22;5100;45.176;5.714;2023-02-15T15:56:57;14.10;56.20
10121;DHT22;5100;45.176;5.714;2023-02-15T15:59:30;14.20;56.20
10121;DHT22;5100;45.176;5.714;2023-02-15T16:02:07;14.20;56.20
10121;DHT22;5100;45.176;5.714;2023-02-15T16:04:34;14.30;56.00
10121;DHT22;5100;45.176;5.714;2023-02-15T16:09:59;14.40;55.90
10121;DHT22;5100;45.176;5.714;2023-02-15T16:12:27;14.40;55.80
10121;DHT22;5100;45.176;5.714;2023-02-15T16:14:56;14.40;55.90
10121;DHT22;5100;45.176;5.714;2023-02-15T16:17:25;14.50;55.90
10121;DHT22;5100;45.176;5.714;2023-02-15T16:19:55;14.50;55.90
10121;DHT22;5100;45.176;5.714;2023-02-15T16:22:25;14.50;55.90
10121;DHT22;5100;45.176;5.714;2023-02-15T16:27:45;14.50;55.90
10121;DHT22;5100;45.176;5.714;2023-02-15T16:30:33;14.50;56.10
10121;DHT22;5100;45.176;5.714;2023-02-15T16:33:15;14.40;56.20
10121;DHT22;5100;45.176;5.714;2023-02-15T16:35:56;14.30;56.40
10121;DHT22;5100;45.176;5.714;2023-02-15T16:41:00;14.20;56.70
10121;DHT22;5100;45.176;5.714;2023-02-15T16:43:29;14.20;56.90
10121;DHT22;5100;45.176;5.714;2023-02-15T16:46:03;14.10;57.00
10121;DHT22;5100;45.176;5.714;2023-02-15T16:48:32;14.10;57.10
10121;DHT22;5100;45.176;5.714;2023-02-15T16:51:00;14.00;57.20
10121;DHT22;5100;45.176;5.714;2023-02-15T16:53:27;14.00;57.40
10121;DHT22;5100;45.176;5.714;2023-02-15T16:55:59;14.00;57.50
10121;DHT22;5100;45.176;5.714;2023-02-15T17:00:58;13.90;57.70
10121;DHT22;5100;45.176;5.714;2023-02-15T17:03:26;13.90;57.70
10121;DHT22;5100;45.176;5.714;2023-02-15T17:06:00;13.80;57.80
10121;DHT22;5100;45.176;5.714;2023-02-15T17:08:42;13.80;57.90
10121;DHT22;5100;45.176;5.714;2023-02-15T17:11:19;13.80;58.00
10121;DHT22;5100;45.176;5.714;2023-02-15T17:19:14;13.70;58.60
10121;DHT22;5100;45.176;5.714;2023-02-15T17:21:46;13.60;58.80
10121;DHT22;5100;45.176;5.714;2023-02-15T17:24:22;13.60;58.90
10121;DHT22;5100;45.176;5.714;2023-02-15T17:26:54;13.60;59.00
10121;DHT22;5100;45.176;5.714;2023-02-15T17:29:38;13.60;59.10
10121;DHT22;5100;45.176;5.714;2023-02-15T17:32:12;13.60;59.10
10121;DHT22;5100;45.176;5.714;2023-02-15T17:34:46;13.50;59.10
10121;DHT22;5100;45.176;5.714;2023-02-15T17:39:57;13.50;59.20
10121;DHT22;5100;45.176;5.714;2023-02-15T17:42:27;13.50;59.10
10121;DHT22;5100;45.176;5.714;2023-02-15T17:44:54;13.40;59.10
10121;DHT22;5100;45.176;5.714;2023-02-15T17:47:22;13.40;59.30
10121;DHT22;5100;45.176;5.714;2023-02-15T17:49:51;13.40;59.60
10121;DHT22;5100;45.176;5.714;2023-02-15T17:52:19;13.40;59.70
10121;DHT22;5100;45.176;5.714;2023-02-15T17:54:46;13.40;59.70
10121;DHT22;5100;45.176;5.714;2023-02-15T17:57:30;13.40;59.80
10121;DHT22;5100;45.176;5.714;2023-02-15T17:59:58;13.30;59.90
10121;DHT22;5100;45.176;5.714;2023-02-15T18:02:43;13.30;60.00
10121;DHT22;5100;45.176;5.714;2023-02-15T18:05:28;13.20;60.10
10121;DHT22;5100;45.176;5.714;2023-02-15T18:08:15;13.20;59.90
10121;DHT22;5100;45.176;5.714;2023-02-15T18:11:01;13.20;59.70
10121;DHT22;5100;45.176;5.714;2023-02-15T18:13:46;13.10;59.90
10121;DHT22;5100;45.176;5.714;2023-02-15T18:16:18;13.10;60.20
10121;DHT22;5100;45.176;5.714;2023-02-15T18:18:44;13.10;60.40
10121;DHT22;5100;45.176;5.714;2023-02-15T18:21:12;13.10;60.40
10121;DHT22;5100;45.176;5.714;2023-02-15T18:23:39;13.00;60.40
10121;DHT22;5100;45.176;5.714;2023-02-15T18:26:05;13.00;60.40
10121;DHT22;5100;45.176;5.714;2023-02-15T18:28:32;13.00;60.40
10121;DHT22;5100;45.176;5.714;2023-02-15T18:30:59;13.00;60.30
10121;DHT22;5100;45.176;5.714;2023-02-15T18:33:38;13.00;60.10
10121;DHT22;5100;45.176;5.714;2023-02-15T18:36:06;12.90;60.00
10121;DHT22;5100;45.176;5.714;2023-02-15T18:38:33;12.90;60.00
10121;DHT22;5100;45.176;5.714;2023-02-15T18:41:01;12.90;59.90
10121;DHT22;5100;45.176;5.714;2023-02-15T18:43:28;12.90;59.80
10121;DHT22;5100;45.176;5.714;2023-02-15T18:45:54;12.90;59.90
10121;DHT22;5100;45.176;5.714;2023-02-15T18:48:20;12.80;59.90
10121;DHT22;5100;45.176;5.714;2023-02-15T18:50:46;12.80;59.90
10121;DHT22;5100;45.176;5.714;2023-02-15T18:53:18;12.80;60.00
10121;DHT22;5100;45.176;5.714;2023-02-15T18:55:45;12.80;60.00
10121;DHT22;5100;45.176;5.714;2023-02-15T18:58:19;12.70;59.90
10121;DHT22;5100;45.176;5.714;2023-02-15T19:00:46;12.70;60.00
10121;DHT22;5100;45.176;5.714;2023-02-15T19:03:16;12.70;60.10
10121;DHT22;5100;45.176;5.714;2023-02-15T19:05:45;12.70;60.00
10121;DHT22;5100;45.176;5.714;2023-02-15T19:08:20;12.70;60.00
10121;DHT22;5100;45.176;5.714;2023-02-15T19:10:50;12.70;60.00
10121;DHT22;5100;45.176;5.714;2023-02-15T19:13:16;12.70;59.90
10121;DHT22;5100;45.176;5.714;2023-02-15T19:15:43;12.60;59.80
10121;DHT22;5100;45.176;5.714;2023-02-15T19:18:09;12.60;59.90
10121;DHT22;5100;45.176;5.714;2023-02-15T19:20:41;12.60;59.80
10121;DHT22;5100;45.176;5.714;2023-02-15T19:23:18;12.60;59.80
10121;DHT22;5100;45.176;5.714;2023-02-15T19:25:47;12.60;59.70
10121;DHT22;5100;45.176;5.714;2023-02-15T19:28:20;12.60;59.60
10121;DHT22;5100;45.176;5.714;2023-02-15T19:30:48;12.60;59.40
10121;DHT22;5100;45.176;5.714;2023-02-15T19:33:19;12.60;59.20